sensor_id;sensor_type;location;lat;lon;timestamp;P1;durP1;ratioP1;P2;durP2;ratioP2
6479;SDS011;71753;48.772;9.148;2024-01-15T00:00:11;7.60;;;3.90;;
6479;SDS011;71753;48.772;9.148;2024-01-15T00:02:38;5.63;;;3.07;;
6479;SDS011;71753;48.772;9.148;2024-01-15T00:05:05;5.37;;;3.47;;
6479;SDS011;71753;48.772;9.148;2024-01-15T00:07:32;6.27;;;3.70;;
6479;SDS011;71753;48.772;9.148;2024-01-15T00:09:59;8.03;;;3.83;;
6479;SDS011;71753;48.772;9.148;2024-01-15T00:12:26;7.50;;;3.70;;
6479;SDS011;71753;48.772;9.148;2024-01-15T00:14:53;6.93;;;3.77;;
6479;SDS011;71753;48.772;9.148;2024-01-15T00:17:21;5.27;;;3.73;;
6479;SDS011;71753;48.772;9.148;2024-01-15T00:19:48;6.57;;;3.20;;
6479;SDS011;71753;48.772;9.148;2024-01-15T00:22:15;8.43;;;3.47;;
6479;SDS011;71753;48.772;9.148;2024-01-15T00:24:41;9.27;;;3.83;;
6479;SDS011;71753;48.772;9.148;2024-01-15T00:27:08;7.23;;;4.10;;
6479;SDS011;71753;48.772;9.148;2024-01-15T00:29:35;8.03;;;4.10;;
6479;SDS011;71753;48.772;9.148;2024-01-15T00:32:01;7.03;;;3.83;;
6479;SDS011;71753;48.772;9.148;2024-01-15T00:34:29;6.47;;;3.80;;
6479;SDS011;71753;48.772;9.148;2024-01-15T00:36:56;5.27;;;3.03;;
6479;SDS011;71753;48.772;9.148;2024-01-15T00:39:23;7.40;;;3.60;;
6479;SDS011;71753;48.772;9.148;2024-01-15T00:41:51;7.93;;;4.00;;
6479;SDS011;71753;48.772;9.148;2024-01-15T00:44:17;9.37;;;4.33;;
6479;SDS011;71753;48.772;9.148;2024-01-15T00:46:44;6.20;;;3.40;;
6479;SDS011;71753;48.772;9.148;2024-01-15T00:49:12;4.90;;;3.40;;
6479;SDS011;71753;48.772;9.148;2024-01-15T00:51:40;4.10;;;2.83;;
6479;SDS011;71753;48.772;9.148;2024-01-15T00:54:07;3.97;;;3.00;;
6479;SDS011;71753;48.772;9.148;2024-01-15T00:56:34;4.90;;;3.03;;
6479;SDS011;71753;48.772;9.148;2024-01-15T00:59:00;7.03;;;3.30;;
6479;SDS011;71753;48.772;9.148;2024-01-15T01:01:27;9.33;;;3.20;;
6479;SDS011;71753;48.772;9.148;2024-01-15T01:03:54;7.63;;;3.90;;
6479;SDS011;71753;48.772;9.148;2024-01-15T01:06:21;5.97;;;3.20;;
6479;SDS011;71753;48.772;9.148;2024-01-15T01:08:49;4.67;;;2.93;;
6479;SDS011;71753;48.772;9.148;2024-01-15T01:11:16;7.60;;;3.60;;
6479;SDS011;71753;48.772;9.148;2024-01-15T01:13:43;5.60;;;3.03;;
6479;SDS011;71753;48.772;9.148;2024-01-15T01:16:09;5.80;;;3.93;;
6479;SDS011;71753;48.772;9.148;2024-01-15T01:18:36;7.47;;;3.53;;
6479;SDS011;71753;48.772;9.148;2024-01-15T01:21:03;8.33;;;3.93;;
6479;SDS011;71753;48.772;9.148;2024-01-15T01:23:30;6.37;;;3.40;;
6479;SDS011;71753;48.772;9.148;2024-01-15T01:25:58;5.53;;;3.03;;
6479;SDS011;71753;48.772;9.148;2024-01-15T01:28:24;6.23;;;3.07;;
6479;SDS011;71753;48.772;9.148;2024-01-15T01:30:51;6.90;;;3.40;;
6479;SDS011;71753;48.772;9.148;2024-01-15T01:33:18;4.70;;;3.33;;
6479;SDS011;71753;48.772;9.148;2024-01-15T01:35:44;10.57;;;4.30;;
6479;SDS011;71753;48.772;9.148;2024-01-15T01:38:11;5.33;;;3.50;;
6479;SDS011;71753;48.772;9.148;2024-01-15T01:40:38;6.63;;;3.80;;
6479;SDS011;71753;48.772;9.148;2024-01-15T01:43:08;7.97;;;3.50;;
6479;SDS011;71753;48.772;9.148;2024-01-15T01:45:35;5.60;;;3.03;;
6479;SDS011;71753;48.772;9.148;2024-01-15T01:48:02;5.00;;;3.27;;
6479;SDS011;71753;48.772;9.148;2024-01-15T01:50:30;5.50;;;3.13;;
6479;SDS011;71753;48.772;9.148;2024-01-15T01:52:57;5.37;;;3.30;;
6479;SDS011;71753;48.772;9.148;2024-01-15T01:55:26;4.60;;;2.97;;
6479;SDS011;71753;48.772;9.148;2024-01-15T01:57:54;6.57;;;3.40;;
6479;SDS011;71753;48.772;9.148;2024-01-15T02:00:23;9.03;;;3.07;;
6479;SDS011;71753;48.772;9.148;2024-01-15T02:02:49;3.90;;;2.77;;
6479;SDS011;71753;48.772;9.148;2024-01-15T02:05:18;6.03;;;2.93;;
6479;SDS011;71753;48.772;9.148;2024-01-15T02:07:45;5.50;;;3.33;;
6479;SDS011;71753;48.772;9.148;2024-01-15T02:10:12;4.67;;;3.27;;
6479;SDS011;71753;48.772;9.148;2024-01-15T02:12:40;6.67;;;3.50;;
6479;SDS011;71753;48.772;9.148;2024-01-15T02:15:08;8.17;;;3.67;;
6479;SDS011;71753;48.772;9.148;2024-01-15T02:17:36;6.13;;;3.43;;
6479;SDS011;71753;48.772;9.148;2024-01-15T02:20:22;4.43;;;3.00;;
6479;SDS011;71753;48.772;9.148;2024-01-15T02:22:49;6.47;;;2.77;;
6479;SDS011;71753;48.772;9.148;2024-01-15T02:25:17;7.70;;;4.27;;
6479;SDS011;71753;48.772;9.148;2024-01-15T02:27:44;7.17;;;3.57;;
6479;SDS011;71753;48.772;9.148;2024-01-15T02:30:12;6.87;;;3.67;;
6479;SDS011;71753;48.772;9.148;2024-01-15T02:32:39;5.60;;;2.90;;
6479;SDS011;71753;48.772;9.148;2024-01-15T02:35:06;6.10;;;2.73;;
6479;SDS011;71753;48.772;9.148;2024-01-15T02:37:33;4.00;;;2.73;;
6479;SDS011;71753;48.772;9.148;2024-01-15T02:40:00;4.93;;;3.40;;
6479;SDS011;71753;48.772;9.148;2024-01-15T02:42:28;5.70;;;2.83;;
6479;SDS011;71753;48.772;9.148;2024-01-15T02:44:54;6.00;;;2.60;;
6479;SDS011;71753;48.772;9.148;2024-01-15T02:47:21;10.00;;;3.47;;
6479;SDS011;71753;48.772;9.148;2024-01-15T02:49:48;4.10;;;3.13;;
6479;SDS011;71753;48.772;9.148;2024-01-15T02:52:14;8.40;;;4.00;;
6479;SDS011;71753;48.772;9.148;2024-01-15T02:54:41;8.37;;;4.03;;
6479;SDS011;71753;48.772;9.148;2024-01-15T02:57:08;7.07;;;3.40;;
6479;SDS011;71753;48.772;9.148;2024-01-15T02:59:36;8.00;;;3.57;;
6479;SDS011;71753;48.772;9.148;2024-01-15T03:02:03;7.33;;;3.03;;
6479;SDS011;71753;48.772;9.148;2024-01-15T03:04:30;5.97;;;3.43;;
6479;SDS011;71753;48.772;9.148;2024-01-15T03:06:56;6.17;;;3.10;;
6479;SDS011;71753;48.772;9.148;2024-01-15T03:09:23;3.90;;;2.63;;
6479;SDS011;71753;48.772;9.148;2024-01-15T03:11:50;4.43;;;3.10;;
6479;SDS011;71753;48.772;9.148;2024-01-15T03:14:16;4.93;;;2.97;;
6479;SDS011;71753;48.772;9.148;2024-01-15T03:16:44;7.33;;;4.10;;
6479;SDS011;71753;48.772;9.148;2024-01-15T03:19:11;7.07;;;3.50;;
6479;SDS011;71753;48.772;9.148;2024-01-15T03:21:38;7.00;;;3.20;;
6479;SDS011;71753;48.772;9.148;2024-01-15T03:24:05;5.13;;;3.40;;
6479;SDS011;71753;48.772;9.148;2024-01-15T03:26:31;7.23;;;3.60;;
6479;SDS011;71753;48.772;9.148;2024-01-15T03:28:58;4.50;;;3.37;;
6479;SDS011;71753;48.772;9.148;2024-01-15T03:31:25;5.37;;;2.87;;
6479;SDS011;71753;48.772;9.148;2024-01-15T03:33:53;8.97;;;3.47;;
6479;SDS011;71753;48.772;9.148;2024-01-15T03:36:20;7.23;;;3.73;;
6479;SDS011;71753;48.772;9.148;2024-01-15T03:38:46;10.13;;;3.53;;
6479;SDS011;71753;48.772;9.148;2024-01-15T03:41:13;3.67;;;2.57;;
6479;SDS011;71753;48.772;9.148;2024-01-15T03:43:40;5.03;;;3.20;;
6479;SDS011;71753;48.772;9.148;2024-01-15T03:46:07;4.27;;;3.17;;
6479;SDS011;71753;48.772;9.148;2024-01-15T03:48:33;7.30;;;3.60;;
6479;SDS011;71753;48.772;9.148;2024-01-15T03:51:02;5.47;;;3.07;;
6479;SDS011;71753;48.772;9.148;2024-01-15T03:53:29;7.67;;;3.63;;
6479;SDS011;71753;48.772;9.148;2024-01-15T03:55:56;6.37;;;3.43;;
6479;SDS011;71753;48.772;9.148;2024-01-15T03:58:22;5.73;;;2.90;;
6479;SDS011;71753;48.772;9.148;2024-01-15T04:00:49;5.53;;;3.60;;
6479;SDS011;71753;48.772;9.148;2024-01-15T04:03:16;6.07;;;3.67;;
6479;SDS011;71753;48.772;9.148;2024-01-15T04:05:43;10.87;;;3.37;;
6479;SDS011;71753;48.772;9.148;2024-01-15T04:08:11;7.47;;;3.13;;
6479;SDS011;71753;48.772;9.148;2024-01-15T04:10:38;6.80;;;3.87;;
6479;SDS011;71753;48.772;9.148;2024-01-15T04:13:04;5.90;;;2.67;;
6479;SDS011;71753;48.772;9.148;2024-01-15T04:15:31;6.60;;;3.70;;
6479;SDS011;71753;48.772;9.148;2024-01-15T04:17:58;4.20;;;2.97;;
6479;SDS011;71753;48.772;9.148;2024-01-15T04:20:26;8.03;;;3.87;;
6479;SDS011;71753;48.772;9.148;2024-01-15T04:22:52;7.53;;;3.57;;
6479;SDS011;71753;48.772;9.148;2024-01-15T04:25:20;6.33;;;2.73;;
6479;SDS011;71753;48.772;9.148;2024-01-15T04:27:47;4.57;;;2.77;;
6479;SDS011;71753;48.772;9.148;2024-01-15T04:30:14;8.60;;;3.70;;
6479;SDS011;71753;48.772;9.148;2024-01-15T04:32:41;4.00;;;2.97;;
6479;SDS011;71753;48.772;9.148;2024-01-15T04:35:08;7.47;;;3.10;;
6479;SDS011;71753;48.772;9.148;2024-01-15T04:37:34;7.43;;;4.00;;
6479;SDS011;71753;48.772;9.148;2024-01-15T04:40:01;7.57;;;3.07;;
6479;SDS011;71753;48.772;9.148;2024-01-15T04:42:30;7.20;;;3.57;;
6479;SDS011;71753;48.772;9.148;2024-01-15T04:44:57;5.20;;;3.23;;
6479;SDS011;71753;48.772;9.148;2024-01-15T04:47:24;6.83;;;3.47;;
6479;SDS011;71753;48.772;9.148;2024-01-15T04:49:51;7.00;;;3.40;;
6479;SDS011;71753;48.772;9.148;2024-01-15T04:52:17;7.13;;;3.70;;
6479;SDS011;71753;48.772;9.148;2024-01-15T04:54:44;5.87;;;3.47;;
6479;SDS011;71753;48.772;9.148;2024-01-15T04:57:10;7.00;;;3.30;;
6479;SDS011;71753;48.772;9.148;2024-01-15T04:59:39;7.20;;;3.17;;
6479;SDS011;71753;48.772;9.148;2024-01-15T05:02:05;6.77;;;3.77;;
6479;SDS011;71753;48.772;9.148;2024-01-15T05:04:32;6.03;;;3.13;;
6479;SDS011;71753;48.772;9.148;2024-01-15T05:06:59;8.73;;;4.47;;
6479;SDS011;71753;48.772;9.148;2024-01-15T05:09:26;6.50;;;4.03;;
6479;SDS011;71753;48.772;9.148;2024-01-15T05:11:52;6.50;;;3.30;;
6479;SDS011;71753;48.772;9.148;2024-01-15T05:14:19;6.57;;;3.83;;
6479;SDS011;71753;48.772;9.148;2024-01-15T05:16:50;6.00;;;3.27;;
6479;SDS011;71753;48.772;9.148;2024-01-15T05:19:17;7.43;;;4.17;;
6479;SDS011;71753;48.772;9.148;2024-01-15T05:21:44;7.20;;;3.63;;
6479;SDS011;71753;48.772;9.148;2024-01-15T05:24:11;8.97;;;4.07;;
6479;SDS011;71753;48.772;9.148;2024-01-15T05:26:37;7.10;;;3.83;;
6479;SDS011;71753;48.772;9.148;2024-01-15T05:29:04;9.20;;;4.47;;
6479;SDS011;71753;48.772;9.148;2024-01-15T05:31:31;7.00;;;4.30;;
6479;SDS011;71753;48.772;9.148;2024-01-15T05:33:59;6.83;;;3.80;;
6479;SDS011;71753;48.772;9.148;2024-01-15T05:36:26;7.73;;;3.40;;
6479;SDS011;71753;48.772;9.148;2024-01-15T05:38:52;5.97;;;3.50;;
6479;SDS011;71753;48.772;9.148;2024-01-15T05:41:19;8.73;;;4.20;;
6479;SDS011;71753;48.772;9.148;2024-01-15T05:43:46;5.77;;;3.80;;
6479;SDS011;71753;48.772;9.148;2024-01-15T05:46:12;4.73;;;3.20;;
6479;SDS011;71753;48.772;9.148;2024-01-15T05:48:40;6.80;;;4.00;;
6479;SDS011;71753;48.772;9.148;2024-01-15T05:51:09;7.73;;;3.93;;
6479;SDS011;71753;48.772;9.148;2024-01-15T05:53:43;7.30;;;4.57;;
6479;SDS011;71753;48.772;9.148;2024-01-15T05:56:10;8.60;;;4.33;;
6479;SDS011;71753;48.772;9.148;2024-01-15T05:58:36;9.40;;;4.23;;
6479;SDS011;71753;48.772;9.148;2024-01-15T06:01:03;13.67;;;4.87;;
6479;SDS011;71753;48.772;9.148;2024-01-15T06:03:30;6.80;;;4.13;;
6479;SDS011;71753;48.772;9.148;2024-01-15T06:05:57;5.60;;;3.43;;
6479;SDS011;71753;48.772;9.148;2024-01-15T06:08:25;5.27;;;3.33;;
6479;SDS011;71753;48.772;9.148;2024-01-15T06:10:52;7.53;;;3.47;;
6479;SDS011;71753;48.772;9.148;2024-01-15T06:13:19;5.67;;;3.47;;
6479;SDS011;71753;48.772;9.148;2024-01-15T06:15:46;7.33;;;3.70;;
6479;SDS011;71753;48.772;9.148;2024-01-15T06:18:13;4.60;;;3.27;;
6479;SDS011;71753;48.772;9.148;2024-01-15T06:20:39;8.23;;;4.17;;
6479;SDS011;71753;48.772;9.148;2024-01-15T06:23:06;6.33;;;3.27;;
6479;SDS011;71753;48.772;9.148;2024-01-15T06:25:34;5.30;;;3.37;;
6479;SDS011;71753;48.772;9.148;2024-01-15T06:28:01;9.33;;;3.93;;
6479;SDS011;71753;48.772;9.148;2024-01-15T06:30:30;7.07;;;4.27;;
6479;SDS011;71753;48.772;9.148;2024-01-15T06:32:56;11.97;;;4.77;;
6479;SDS011;71753;48.772;9.148;2024-01-15T06:35:23;6.83;;;3.70;;
6479;SDS011;71753;48.772;9.148;2024-01-15T06:37:50;5.30;;;3.67;;
6479;SDS011;71753;48.772;9.148;2024-01-15T06:40:17;8.87;;;4.40;;
6479;SDS011;71753;48.772;9.148;2024-01-15T06:42:45;13.50;;;4.17;;
6479;SDS011;71753;48.772;9.148;2024-01-15T06:45:11;5.93;;;3.40;;
6479;SDS011;71753;48.772;9.148;2024-01-15T06:47:38;13.17;;;5.47;;
6479;SDS011;71753;48.772;9.148;2024-01-15T06:50:05;7.97;;;4.33;;
6479;SDS011;71753;48.772;9.148;2024-01-15T06:52:32;6.07;;;3.47;;
6479;SDS011;71753;48.772;9.148;2024-01-15T06:54:59;5.23;;;3.73;;
6479;SDS011;71753;48.772;9.148;2024-01-15T06:57:25;6.77;;;3.97;;
6479;SDS011;71753;48.772;9.148;2024-01-15T06:59:54;8.50;;;3.77;;
6479;SDS011;71753;48.772;9.148;2024-01-15T07:02:21;8.03;;;4.53;;
6479;SDS011;71753;48.772;9.148;2024-01-15T07:04:47;5.07;;;3.10;;
6479;SDS011;71753;48.772;9.148;2024-01-15T07:07:14;6.33;;;3.97;;
6479;SDS011;71753;48.772;9.148;2024-01-15T07:09:41;5.30;;;3.27;;
6479;SDS011;71753;48.772;9.148;2024-01-15T07:12:08;6.20;;;3.43;;
6479;SDS011;71753;48.772;9.148;2024-01-15T07:14:34;4.37;;;3.37;;
6479;SDS011;71753;48.772;9.148;2024-01-15T07:17:02;6.17;;;3.43;;
6479;SDS011;71753;48.772;9.148;2024-01-15T07:19:29;5.10;;;3.13;;
6479;SDS011;71753;48.772;9.148;2024-01-15T07:21:56;6.67;;;3.00;;
6479;SDS011;71753;48.772;9.148;2024-01-15T07:24:23;6.27;;;3.80;;
6479;SDS011;71753;48.772;9.148;2024-01-15T07:26:49;6.67;;;3.30;;
6479;SDS011;71753;48.772;9.148;2024-01-15T07:29:16;8.20;;;3.97;;
6479;SDS011;71753;48.772;9.148;2024-01-15T07:31:47;4.43;;;3.17;;
6479;SDS011;71753;48.772;9.148;2024-01-15T07:34:16;6.43;;;3.40;;
6479;SDS011;71753;48.772;9.148;2024-01-15T07:36:43;4.50;;;3.17;;
6479;SDS011;71753;48.772;9.148;2024-01-15T07:39:10;8.80;;;3.87;;
6479;SDS011;71753;48.772;9.148;2024-01-15T07:41:37;5.30;;;2.87;;
6479;SDS011;71753;48.772;9.148;2024-01-15T07:44:04;4.70;;;2.77;;
6479;SDS011;71753;48.772;9.148;2024-01-15T07:46:31;4.57;;;2.63;;
6479;SDS011;71753;48.772;9.148;2024-01-15T07:48:58;6.60;;;3.47;;
6479;SDS011;71753;48.772;9.148;2024-01-15T07:51:26;7.07;;;3.10;;
6479;SDS011;71753;48.772;9.148;2024-01-15T07:53:53;4.10;;;2.83;;
6479;SDS011;71753;48.772;9.148;2024-01-15T07:56:21;5.53;;;3.17;;
6479;SDS011;71753;48.772;9.148;2024-01-15T07:58:47;6.00;;;4.10;;
6479;SDS011;71753;48.772;9.148;2024-01-15T08:01:14;5.83;;;3.07;;
6479;SDS011;71753;48.772;9.148;2024-01-15T08:03:41;6.93;;;3.50;;
6479;SDS011;71753;48.772;9.148;2024-01-15T08:06:08;6.87;;;3.60;;
6479;SDS011;71753;48.772;9.148;2024-01-15T08:08:36;5.90;;;3.47;;
6479;SDS011;71753;48.772;9.148;2024-01-15T08:11:03;7.23;;;4.17;;
6479;SDS011;71753;48.772;9.148;2024-01-15T08:13:30;8.53;;;3.30;;
6479;SDS011;71753;48.772;9.148;2024-01-15T08:15:57;5.63;;;3.60;;
6479;SDS011;71753;48.772;9.148;2024-01-15T08:18:24;6.37;;;3.60;;
6479;SDS011;71753;48.772;9.148;2024-01-15T08:20:51;5.50;;;3.27;;
6479;SDS011;71753;48.772;9.148;2024-01-15T08:23:17;7.03;;;3.57;;
6479;SDS011;71753;48.772;9.148;2024-01-15T08:25:46;6.00;;;3.97;;
6479;SDS011;71753;48.772;9.148;2024-01-15T08:28:13;7.50;;;3.47;;
6479;SDS011;71753;48.772;9.148;2024-01-15T08:30:40;5.47;;;2.93;;
6479;SDS011;71753;48.772;9.148;2024-01-15T08:33:07;5.17;;;3.53;;
6479;SDS011;71753;48.772;9.148;2024-01-15T08:35:33;6.10;;;3.13;;
6479;SDS011;71753;48.772;9.148;2024-01-15T08:38:00;5.50;;;3.03;;
6479;SDS011;71753;48.772;9.148;2024-01-15T08:40:27;4.50;;;2.50;;
6479;SDS011;71753;48.772;9.148;2024-01-15T08:42:55;4.53;;;2.70;;
6479;SDS011;71753;48.772;9.148;2024-01-15T08:45:22;5.30;;;2.47;;
6479;SDS011;71753;48.772;9.148;2024-01-15T08:47:49;4.47;;;2.47;;
6479;SDS011;71753;48.772;9.148;2024-01-15T08:50:16;4.70;;;2.90;;
6479;SDS011;71753;48.772;9.148;2024-01-15T08:52:43;3.97;;;2.60;;
6479;SDS011;71753;48.772;9.148;2024-01-15T08:55:09;2.37;;;2.13;;
6479;SDS011;71753;48.772;9.148;2024-01-15T08:57:38;3.57;;;2.50;;
6479;SDS011;71753;48.772;9.148;2024-01-15T09:00:06;2.37;;;2.17;;
6479;SDS011;71753;48.772;9.148;2024-01-15T09:02:34;4.83;;;2.70;;
6479;SDS011;71753;48.772;9.148;2024-01-15T09:05:01;4.77;;;2.37;;
6479;SDS011;71753;48.772;9.148;2024-01-15T09:07:29;5.10;;;2.90;;
6479;SDS011;71753;48.772;9.148;2024-01-15T09:09:56;7.87;;;3.37;;
6479;SDS011;71753;48.772;9.148;2024-01-15T09:12:24;3.03;;;2.47;;
6479;SDS011;71753;48.772;9.148;2024-01-15T09:14:51;2.87;;;2.50;;
6479;SDS011;71753;48.772;9.148;2024-01-15T09:17:20;3.70;;;2.53;;
6479;SDS011;71753;48.772;9.148;2024-01-15T09:19:48;4.80;;;3.03;;
6479;SDS011;71753;48.772;9.148;2024-01-15T09:22:15;4.13;;;2.50;;
6479;SDS011;71753;48.772;9.148;2024-01-15T09:24:43;3.33;;;2.40;;
6479;SDS011;71753;48.772;9.148;2024-01-15T09:27:10;5.43;;;2.47;;
6479;SDS011;71753;48.772;9.148;2024-01-15T09:29:37;7.17;;;3.40;;
6479;SDS011;71753;48.772;9.148;2024-01-15T09:32:06;3.97;;;2.27;;
6479;SDS011;71753;48.772;9.148;2024-01-15T09:34:34;3.67;;;2.77;;
6479;SDS011;71753;48.772;9.148;2024-01-15T09:37:01;2.63;;;2.40;;
6479;SDS011;71753;48.772;9.148;2024-01-15T09:39:29;3.87;;;2.63;;
6479;SDS011;71753;48.772;9.148;2024-01-15T09:41:56;2.67;;;2.20;;
6479;SDS011;71753;48.772;9.148;2024-01-15T09:44:23;3.00;;;2.07;;
6479;SDS011;71753;48.772;9.148;2024-01-15T09:46:51;2.63;;;2.03;;
6479;SDS011;71753;48.772;9.148;2024-01-15T09:49:18;2.70;;;2.20;;
6479;SDS011;71753;48.772;9.148;2024-01-15T09:51:47;4.13;;;2.40;;
6479;SDS011;71753;48.772;9.148;2024-01-15T09:54:13;5.23;;;2.33;;
6479;SDS011;71753;48.772;9.148;2024-01-15T09:56:42;3.63;;;2.63;;
6479;SDS011;71753;48.772;9.148;2024-01-15T09:59:12;3.57;;;2.43;;
6479;SDS011;71753;48.772;9.148;2024-01-15T10:01:41;3.63;;;2.20;;
6479;SDS011;71753;48.772;9.148;2024-01-15T10:04:10;4.90;;;2.33;;
6479;SDS011;71753;48.772;9.148;2024-01-15T10:06:37;4.63;;;2.47;;
6479;SDS011;71753;48.772;9.148;2024-01-15T10:09:07;3.37;;;2.30;;
6479;SDS011;71753;48.772;9.148;2024-01-15T10:11:34;2.90;;;2.10;;
6479;SDS011;71753;48.772;9.148;2024-01-15T10:14:02;4.53;;;2.53;;
6479;SDS011;71753;48.772;9.148;2024-01-15T10:16:30;4.33;;;2.53;;
6479;SDS011;71753;48.772;9.148;2024-01-15T10:18:57;3.93;;;2.50;;
6479;SDS011;71753;48.772;9.148;2024-01-15T10:21:24;3.30;;;2.23;;
6479;SDS011;71753;48.772;9.148;2024-01-15T10:23:51;6.23;;;2.93;;
6479;SDS011;71753;48.772;9.148;2024-01-15T10:26:19;5.33;;;2.73;;
6479;SDS011;71753;48.772;9.148;2024-01-15T10:28:50;3.70;;;2.80;;
6479;SDS011;71753;48.772;9.148;2024-01-15T10:31:18;4.67;;;2.77;;
6479;SDS011;71753;48.772;9.148;2024-01-15T10:33:47;5.03;;;2.60;;
6479;SDS011;71753;48.772;9.148;2024-01-15T10:36:14;4.27;;;2.53;;
6479;SDS011;71753;48.772;9.148;2024-01-15T10:38:42;3.30;;;2.50;;
6479;SDS011;71753;48.772;9.148;2024-01-15T10:41:10;8.93;;;2.63;;
6479;SDS011;71753;48.772;9.148;2024-01-15T10:43:38;2.87;;;2.10;;
6479;SDS011;71753;48.772;9.148;2024-01-15T10:46:06;2.43;;;2.00;;
6479;SDS011;71753;48.772;9.148;2024-01-15T10:48:33;4.13;;;2.20;;
6479;SDS011;71753;48.772;9.148;2024-01-15T10:51:01;4.97;;;2.60;;
6479;SDS011;71753;48.772;9.148;2024-01-15T10:53:35;3.57;;;2.40;;
6479;SDS011;71753;48.772;9.148;2024-01-15T10:56:04;3.70;;;2.77;;
6479;SDS011;71753;48.772;9.148;2024-01-15T10:58:31;3.27;;;2.33;;
6479;SDS011;71753;48.772;9.148;2024-01-15T11:01:01;3.77;;;2.40;;
6479;SDS011;71753;48.772;9.148;2024-01-15T11:03:28;6.80;;;2.57;;
6479;SDS011;71753;48.772;9.148;2024-01-15T11:05:55;3.20;;;2.33;;
6479;SDS011;71753;48.772;9.148;2024-01-15T11:08:22;3.83;;;2.37;;
6479;SDS011;71753;48.772;9.148;2024-01-15T11:10:51;3.47;;;2.30;;
6479;SDS011;71753;48.772;9.148;2024-01-15T11:13:20;4.40;;;2.70;;
6479;SDS011;71753;48.772;9.148;2024-01-15T11:16:01;2.63;;;2.13;;
6479;SDS011;71753;48.772;9.148;2024-01-15T11:18:29;5.30;;;2.47;;
6479;SDS011;71753;48.772;9.148;2024-01-15T11:23:51;5.87;;;3.00;;
6479;SDS011;71753;48.772;9.148;2024-01-15T11:26:27;5.90;;;2.60;;
6479;SDS011;71753;48.772;9.148;2024-01-15T11:28:55;3.73;;;2.47;;
6479;SDS011;71753;48.772;9.148;2024-01-15T11:31:27;3.07;;;2.57;;
6479;SDS011;71753;48.772;9.148;2024-01-15T11:33:54;4.77;;;2.57;;
6479;SDS011;71753;48.772;9.148;2024-01-15T11:36:21;4.20;;;2.40;;
6479;SDS011;71753;48.772;9.148;2024-01-15T11:38:48;4.53;;;2.60;;
6479;SDS011;71753;48.772;9.148;2024-01-15T11:41:14;3.47;;;2.47;;
6479;SDS011;71753;48.772;9.148;2024-01-15T11:43:41;5.37;;;3.10;;
6479;SDS011;71753;48.772;9.148;2024-01-15T11:46:10;6.73;;;2.90;;
6479;SDS011;71753;48.772;9.148;2024-01-15T11:48:42;3.67;;;2.70;;
6479;SDS011;71753;48.772;9.148;2024-01-15T11:51:10;4.67;;;2.97;;
6479;SDS011;71753;48.772;9.148;2024-01-15T11:53:40;4.17;;;2.73;;
6479;SDS011;71753;48.772;9.148;2024-01-15T11:56:12;5.13;;;2.87;;
6479;SDS011;71753;48.772;9.148;2024-01-15T11:58:41;4.40;;;2.73;;
6479;SDS011;71753;48.772;9.148;2024-01-15T12:01:08;3.90;;;2.73;;
6479;SDS011;71753;48.772;9.148;2024-01-15T12:03:36;3.47;;;2.50;;
6479;SDS011;71753;48.772;9.148;2024-01-15T12:06:06;5.73;;;2.57;;
6479;SDS011;71753;48.772;9.148;2024-01-15T12:08:33;4.83;;;2.93;;
6479;SDS011;71753;48.772;9.148;2024-01-15T12:10:59;3.87;;;2.90;;
6479;SDS011;71753;48.772;9.148;2024-01-15T12:13:27;3.50;;;2.40;;
6479;SDS011;71753;48.772;9.148;2024-01-15T12:15:54;4.43;;;2.50;;
6479;SDS011;71753;48.772;9.148;2024-01-15T12:18:21;5.07;;;2.80;;
6479;SDS011;71753;48.772;9.148;2024-01-15T12:20:47;5.90;;;3.17;;
6479;SDS011;71753;48.772;9.148;2024-01-15T12:23:15;6.20;;;3.17;;
6479;SDS011;71753;48.772;9.148;2024-01-15T12:25:43;6.07;;;3.03;;
6479;SDS011;71753;48.772;9.148;2024-01-15T12:28:10;4.43;;;3.13;;
6479;SDS011;71753;48.772;9.148;2024-01-15T12:30:36;5.80;;;3.30;;
6479;SDS011;71753;48.772;9.148;2024-01-15T12:33:04;4.10;;;2.77;;
6479;SDS011;71753;48.772;9.148;2024-01-15T12:35:31;3.40;;;2.30;;
6479;SDS011;71753;48.772;9.148;2024-01-15T12:37:59;3.17;;;2.37;;
6479;SDS011;71753;48.772;9.148;2024-01-15T12:40:29;5.87;;;2.80;;
6479;SDS011;71753;48.772;9.148;2024-01-15T12:42:56;5.63;;;3.00;;
6479;SDS011;71753;48.772;9.148;2024-01-15T12:45:23;4.13;;;2.63;;
6479;SDS011;71753;48.772;9.148;2024-01-15T12:47:50;3.80;;;2.47;;
6479;SDS011;71753;48.772;9.148;2024-01-15T12:50:17;5.17;;;2.70;;
6479;SDS011;71753;48.772;9.148;2024-01-15T12:52:44;8.23;;;3.23;;
6479;SDS011;71753;48.772;9.148;2024-01-15T12:55:10;3.93;;;2.63;;
6479;SDS011;71753;48.772;9.148;2024-01-15T12:57:38;5.90;;;3.70;;
6479;SDS011;71753;48.772;9.148;2024-01-15T13:00:05;4.60;;;2.80;;
6479;SDS011;71753;48.772;9.148;2024-01-15T13:02:37;3.83;;;2.73;;
6479;SDS011;71753;48.772;9.148;2024-01-15T13:05:04;6.57;;;3.37;;
6479;SDS011;71753;48.772;9.148;2024-01-15T13:07:31;3.23;;;2.57;;
6479;SDS011;71753;48.772;9.148;2024-01-15T13:09:58;4.93;;;2.60;;
6479;SDS011;71753;48.772;9.148;2024-01-15T13:12:25;3.87;;;2.60;;
6479;SDS011;71753;48.772;9.148;2024-01-15T13:14:53;6.03;;;2.70;;
6479;SDS011;71753;48.772;9.148;2024-01-15T13:17:19;4.30;;;2.33;;
6479;SDS011;71753;48.772;9.148;2024-01-15T13:19:47;3.57;;;2.17;;
6479;SDS011;71753;48.772;9.148;2024-01-15T13:22:13;3.37;;;2.17;;
6479;SDS011;71753;48.772;9.148;2024-01-15T13:24:40;3.20;;;2.27;;
6479;SDS011;71753;48.772;9.148;2024-01-15T13:27:07;4.17;;;2.50;;
6479;SDS011;71753;48.772;9.148;2024-01-15T13:29:34;3.50;;;2.50;;
6479;SDS011;71753;48.772;9.148;2024-01-15T13:32:02;3.90;;;2.50;;
6479;SDS011;71753;48.772;9.148;2024-01-15T13:34:30;4.47;;;2.23;;
6479;SDS011;71753;48.772;9.148;2024-01-15T13:36:56;2.33;;;2.00;;
6479;SDS011;71753;48.772;9.148;2024-01-15T13:39:23;5.73;;;2.43;;
6479;SDS011;71753;48.772;9.148;2024-01-15T13:41:50;4.50;;;2.50;;
6479;SDS011;71753;48.772;9.148;2024-01-15T13:44:16;3.47;;;2.20;;
6479;SDS011;71753;48.772;9.148;2024-01-15T13:46:44;2.00;;;1.80;;
6479;SDS011;71753;48.772;9.148;2024-01-15T13:49:12;2.90;;;2.10;;
6479;SDS011;71753;48.772;9.148;2024-01-15T13:51:39;3.80;;;2.33;;
6479;SDS011;71753;48.772;9.148;2024-01-15T13:54:06;2.17;;;1.87;;
6479;SDS011;71753;48.772;9.148;2024-01-15T13:56:33;2.67;;;1.63;;
6479;SDS011;71753;48.772;9.148;2024-01-15T13:59:00;3.03;;;2.10;;
6479;SDS011;71753;48.772;9.148;2024-01-15T14:01:29;2.73;;;1.97;;
6479;SDS011;71753;48.772;9.148;2024-01-15T14:03:56;2.30;;;2.10;;
6479;SDS011;71753;48.772;9.148;2024-01-15T14:06:24;3.93;;;2.60;;
6479;SDS011;71753;48.772;9.148;2024-01-15T14:08:51;2.37;;;2.13;;
6479;SDS011;71753;48.772;9.148;2024-01-15T14:11:18;2.43;;;2.07;;
6479;SDS011;71753;48.772;9.148;2024-01-15T14:13:45;2.63;;;2.10;;
6479;SDS011;71753;48.772;9.148;2024-01-15T14:16:12;3.40;;;2.10;;
6479;SDS011;71753;48.772;9.148;2024-01-15T14:18:39;2.57;;;2.03;;
6479;SDS011;71753;48.772;9.148;2024-01-15T14:21:06;2.67;;;2.10;;
6479;SDS011;71753;48.772;9.148;2024-01-15T14:23:34;2.70;;;2.00;;
6479;SDS011;71753;48.772;9.148;2024-01-15T14:26:00;2.00;;;1.80;;
6479;SDS011;71753;48.772;9.148;2024-01-15T14:28:27;2.80;;;2.20;;
6479;SDS011;71753;48.772;9.148;2024-01-15T14:30:54;3.27;;;2.40;;
6479;SDS011;71753;48.772;9.148;2024-01-15T14:33:23;2.27;;;1.90;;
6479;SDS011;71753;48.772;9.148;2024-01-15T14:35:50;2.73;;;2.20;;
6479;SDS011;71753;48.772;9.148;2024-01-15T14:38:17;2.87;;;2.20;;
6479;SDS011;71753;48.772;9.148;2024-01-15T14:40:44;3.60;;;2.50;;
6479;SDS011;71753;48.772;9.148;2024-01-15T14:43:11;2.40;;;2.17;;
6479;SDS011;71753;48.772;9.148;2024-01-15T14:45:38;2.13;;;1.83;;
6479;SDS011;71753;48.772;9.148;2024-01-15T14:48:05;3.00;;;2.30;;
6479;SDS011;71753;48.772;9.148;2024-01-15T14:50:31;3.57;;;2.47;;
6479;SDS011;71753;48.772;9.148;2024-01-15T14:52:58;2.53;;;2.10;;
6479;SDS011;71753;48.772;9.148;2024-01-15T14:55:25;3.80;;;2.20;;
6479;SDS011;71753;48.772;9.148;2024-01-15T14:57:53;2.73;;;2.20;;
6479;SDS011;71753;48.772;9.148;2024-01-15T15:00:20;3.93;;;2.70;;
6479;SDS011;71753;48.772;9.148;2024-01-15T15:02:46;31.07;;;14.73;;